• Join FlightAware (Why Join?)
  • Login
  • US Flag 
10:49AM EDT


 

Airport Tracker/Info


-or-


 

Live Flight TrackerFlight Track Log ✈ DAL6091 ✈ 23-Apr-2013 ✈ KRIC - KJFK

Flight Track Log - Related Links

Times and Time Zones

All times are in EDT time to prevent confusion due to time zone crossing. See the DAL6091 flight status page for this flight to view local times or setup timezone preferences in your user account.

Time Position Orientation Groundspeed Altitude Reporting Facility
EDT Latitude Longitude Course Direction KTS MPH feet Rate Location/Type
01:15PM 37.5333 -77.3333 38° Northeast 161 185 1,400  Level Potomac TRACON
01:16PM 37.5667 -77.2833 50° Northeast 213 245 3,600 1,980 Climbing Potomac TRACON
01:17PM 37.5967 -77.2483 43° Northeast 239 275 4,800 2,280 Climbing Washington Center
01:18PM 37.7326 -77.0675 38° Northeast  Level FlightAware Approximate
01:18PM 37.6456 -77.1786 48° Northeast 256 295 7,600  Level Washington Center
01:19PM 37.8125 -76.9875 38° Northeast  Level FlightAware Approximate
01:19PM 37.7006 -77.1194 40° Northeast 256 295 9,000  Level Washington Center
01:20PM 37.8925 -76.9076 38° Northeast  Level FlightAware Approximate
01:20PM 37.7617 -77.0550 40° Northeast 267 307 9,300  Level Washington Center
01:21PM 37.8272 -76.9931 37° Northeast 282 325 11,700 1,800 Climbing Washington Center
01:22PM 37.8928 -76.9233 40° Northeast 290 334 13,000 600 Climbing Washington Center
01:23PM 37.9542 -76.8217 53° Northeast 311 358 13,000  Level Washington Center
01:24PM 38.0117 -76.7067 58° Northeast 358 412 13,000 360 Level Washington Center
01:25PM 38.0667 -76.5967 58° Northeast 371 427 13,800 1,380 Climbing Washington Center
01:26PM 38.1239 -76.4867 57° Northeast 371 427 15,800 1,560 Climbing Washington Center
01:27PM 38.1747 -76.3761 60° Northeast 366 421 17,000 540 Climbing Washington Center
01:28PM 38.2669 -76.3058 31° Northeast 361 415 16,900  Descending Washington Center
01:29PM 38.3736 -76.2381 26° Northeast 369 425 17,000  Climbing Washington Center
01:30PM 38.4678 -76.1750 28° Northeast 374 430 17,000  Level Washington Center
01:31PM 38.5514 -76.1147 29° Northeast 381 438 17,000 -60 Level Washington Center
01:32PM 38.6497 -76.0542 26° Northeast 381 438 16,900 -60 Descending Washington Center
01:33PM 38.7314 -75.9617 41° Northeast 387 445 16,900  Level Washington Center
01:34PM 38.7964 -75.8394 56° Northeast 387 445 16,900  Level Washington Center
01:35PM 38.8547 -75.7250 57° Northeast 393 452 16,900  Level Washington Center
01:36PM 38.9153 -75.6075 56° Northeast 393 452 16,900  Level Washington Center
01:37PM 38.9758 -75.4956 55° Northeast 393 452 16,900  Level Washington Center
01:38PM 39.0403 -75.3806 54° Northeast 393 452 17,000  Climbing Washington Center
01:39PM 39.1025 -75.2600 56° Northeast 399 459 16,900 -60 Descending Washington Center
01:40PM 39.1667 -75.1364 56° Northeast 404 465 16,900  Level Washington Center
01:41PM 39.2308 -75.0128 56° Northeast 404 465 16,900  Level Washington Center
01:42PM 39.2925 -74.8944 56° Northeast 394 453 16,900  Level Washington Center
01:44PM 39.4269 -74.6383 56° Northeast 414 476 17,000  Climbing New York Center
01:45PM 39.4825 -74.5311 56° Northeast 409 471 16,900 -60 Descending New York Center
01:46PM 39.5511 -74.4028 55° Northeast 403 464 16,900  Level New York Center
01:47PM 39.6131 -74.2875 55° Northeast 398 458 16,900  Level New York Center
01:48PM 39.6792 -74.1694 54° Northeast 398 458 16,900 -60 Level New York Center
01:49PM 39.7522 -74.0892 40° Northeast 388 447 16,800 -1,140 Descending New York Center
01:50PM 39.8447 -73.9883 40° Northeast 383 441 14,700 -2,040 Descending New York Center
01:51PM 39.9319 -73.9244 29° Northeast 369 425 12,800 -1,860 Descending New York Center
01:52PM 40.0083 -73.8683 29° Northeast 338 389 11,000 -1,020 Descending New York Center
01:53PM 40.0678 -73.8278 28° Northeast 280 322 10,800 -960 Descending New York Center
01:54PM 40.1250 -73.7950 24° Northeast 238 274 9,200 -2,040 Descending New York Center
01:54PM 40.1500 -73.8167 326° Northwest 236 272 8,100 -2,340 Descending New York TRACON
01:55PM 40.2000 -73.8833 314° West 242 278 6,100 -1,800 Descending New York TRACON
01:56PM 40.2236 -73.9242 307° West 223 257 5,100 -1,320 Descending New York Center
01:57PM 40.2700 -73.9836 316° Northwest 238 274 4,000 -1,020 Descending New York Center
01:58PM 40.3064 -74.0261 318° Northwest 208 239 3,200 -540 Descending New York Center
01:59PM 40.3542 -74.0311 355° North 166 191 3,000 -120 Descending New York Center
02:00PM 40.3864 -73.9972 39° Northeast 138 159 3,000  Level New York Center
02:00PM 40.4000 -73.9833 38° Northeast 159 183 3,000  Level New York TRACON
02:01PM 40.4333 -73.9333 49° Northeast 158 182 3,000  Level New York TRACON
02:02PM 40.4667 -73.9000 37° Northeast 162 186 3,000 -120 Level New York TRACON
02:03PM 40.5000 -73.8833 21° North 160 184 2,800 -600 Descending New York TRACON
02:04PM 40.5500 -73.8500 27° Northeast 153 176 1,900 -960 Descending New York TRACON